sensor_id;sensor_type;location;lat;lon;timestamp;P1;durP1;ratioP1;P2;durP2;ratioP2
8594;SDS011;4335;48.860;9.198;2022-12-18T00:01:19;42.93;;;24.77;;
8594;SDS011;4335;48.860;9.198;2022-12-18T00:03:48;48.03;;;26.07;;
8594;SDS011;4335;48.860;9.198;2022-12-18T00:06:16;52.87;;;25.80;;
8594;SDS011;4335;48.860;9.198;2022-12-18T00:08:45;48.13;;;26.00;;
8594;SDS011;4335;48.860;9.198;2022-12-18T00:11:15;45.70;;;26.10;;
8594;SDS011;4335;48.860;9.198;2022-12-18T00:13:45;46.00;;;25.13;;
8594;SDS011;4335;48.860;9.198;2022-12-18T00:16:12;47.50;;;26.70;;
8594;SDS011;4335;48.860;9.198;2022-12-18T00:18:40;48.17;;;26.30;;
8594;SDS011;4335;48.860;9.198;2022-12-18T00:23:54;45.37;;;26.17;;
8594;SDS011;4335;48.860;9.198;2022-12-18T00:26:23;46.73;;;27.33;;
8594;SDS011;4335;48.860;9.198;2022-12-18T00:28:52;58.37;;;27.43;;
8594;SDS011;4335;48.860;9.198;2022-12-18T00:31:21;50.83;;;27.10;;
8594;SDS011;4335;48.860;9.198;2022-12-18T00:33:49;51.77;;;26.83;;
8594;SDS011;4335;48.860;9.198;2022-12-18T00:36:18;42.37;;;25.03;;
8594;SDS011;4335;48.860;9.198;2022-12-18T00:38:47;49.13;;;26.20;;
8594;SDS011;4335;48.860;9.198;2022-12-18T00:41:18;50.43;;;26.90;;
8594;SDS011;4335;48.860;9.198;2022-12-18T00:44:00;42.57;;;25.13;;
8594;SDS011;4335;48.860;9.198;2022-12-18T00:46:28;50.07;;;26.40;;
8594;SDS011;4335;48.860;9.198;2022-12-18T00:48:55;56.73;;;27.97;;
8594;SDS011;4335;48.860;9.198;2022-12-18T00:51:23;50.87;;;25.97;;
8594;SDS011;4335;48.860;9.198;2022-12-18T00:53:51;58.10;;;28.77;;
8594;SDS011;4335;48.860;9.198;2022-12-18T00:56:19;49.87;;;24.73;;
8594;SDS011;4335;48.860;9.198;2022-12-18T00:58:49;48.43;;;25.93;;
8594;SDS011;4335;48.860;9.198;2022-12-18T01:01:18;45.70;;;25.10;;
8594;SDS011;4335;48.860;9.198;2022-12-18T01:03:46;47.47;;;26.20;;
8594;SDS011;4335;48.860;9.198;2022-12-18T01:06:14;47.83;;;25.87;;
8594;SDS011;4335;48.860;9.198;2022-12-18T01:08:42;52.00;;;26.03;;
8594;SDS011;4335;48.860;9.198;2022-12-18T01:11:11;51.07;;;26.27;;
8594;SDS011;4335;48.860;9.198;2022-12-18T01:13:40;44.60;;;26.43;;
8594;SDS011;4335;48.860;9.198;2022-12-18T01:16:08;56.63;;;28.27;;
8594;SDS011;4335;48.860;9.198;2022-12-18T01:18:39;51.37;;;25.20;;
8594;SDS011;4335;48.860;9.198;2022-12-18T01:21:07;47.30;;;27.03;;
8594;SDS011;4335;48.860;9.198;2022-12-18T01:23:36;52.90;;;25.67;;
8594;SDS011;4335;48.860;9.198;2022-12-18T01:26:07;46.47;;;24.30;;
8594;SDS011;4335;48.860;9.198;2022-12-18T01:28:36;43.60;;;22.70;;
8594;SDS011;4335;48.860;9.198;2022-12-18T01:31:20;47.60;;;23.70;;
8594;SDS011;4335;48.860;9.198;2022-12-18T01:33:51;46.17;;;25.57;;
8594;SDS011;4335;48.860;9.198;2022-12-18T01:36:20;44.37;;;24.97;;
8594;SDS011;4335;48.860;9.198;2022-12-18T01:38:51;47.33;;;25.67;;
8594;SDS011;4335;48.860;9.198;2022-12-18T01:41:20;48.77;;;26.57;;
8594;SDS011;4335;48.860;9.198;2022-12-18T01:43:50;46.83;;;24.30;;
8594;SDS011;4335;48.860;9.198;2022-12-18T01:46:19;45.07;;;25.33;;
8594;SDS011;4335;48.860;9.198;2022-12-18T01:48:51;50.03;;;24.97;;
8594;SDS011;4335;48.860;9.198;2022-12-18T01:51:22;51.13;;;25.13;;
8594;SDS011;4335;48.860;9.198;2022-12-18T01:53:50;51.50;;;26.87;;
8594;SDS011;4335;48.860;9.198;2022-12-18T01:56:18;53.63;;;22.43;;
8594;SDS011;4335;48.860;9.198;2022-12-18T01:58:52;49.17;;;26.13;;
8594;SDS011;4335;48.860;9.198;2022-12-18T02:01:23;54.57;;;26.20;;
8594;SDS011;4335;48.860;9.198;2022-12-18T02:03:51;53.07;;;25.87;;
8594;SDS011;4335;48.860;9.198;2022-12-18T02:06:20;45.70;;;24.37;;
8594;SDS011;4335;48.860;9.198;2022-12-18T02:08:58;42.80;;;23.07;;
8594;SDS011;4335;48.860;9.198;2022-12-18T02:11:39;42.67;;;23.80;;
8594;SDS011;4335;48.860;9.198;2022-12-18T02:14:22;46.23;;;21.57;;
8594;SDS011;4335;48.860;9.198;2022-12-18T02:16:56;41.13;;;22.43;;
8594;SDS011;4335;48.860;9.198;2022-12-18T02:19:39;44.13;;;23.17;;
8594;SDS011;4335;48.860;9.198;2022-12-18T02:22:29;45.77;;;23.10;;
8594;SDS011;4335;48.860;9.198;2022-12-18T02:25:13;44.77;;;23.47;;
8594;SDS011;4335;48.860;9.198;2022-12-18T02:27:54;46.07;;;24.17;;
8594;SDS011;4335;48.860;9.198;2022-12-18T02:30:31;41.53;;;22.27;;
8594;SDS011;4335;48.860;9.198;2022-12-18T02:33:07;48.93;;;23.20;;
8594;SDS011;4335;48.860;9.198;2022-12-18T02:35:37;45.30;;;23.33;;
8594;SDS011;4335;48.860;9.198;2022-12-18T02:38:06;42.47;;;21.40;;
8594;SDS011;4335;48.860;9.198;2022-12-18T02:40:34;45.40;;;23.33;;
8594;SDS011;4335;48.860;9.198;2022-12-18T02:43:08;45.73;;;24.93;;
8594;SDS011;4335;48.860;9.198;2022-12-18T02:45:37;48.57;;;22.97;;
8594;SDS011;4335;48.860;9.198;2022-12-18T02:48:17;45.70;;;22.60;;
8594;SDS011;4335;48.860;9.198;2022-12-18T02:50:51;46.37;;;21.60;;
8594;SDS011;4335;48.860;9.198;2022-12-18T02:53:27;43.80;;;22.53;;
8594;SDS011;4335;48.860;9.198;2022-12-18T02:56:02;38.37;;;23.23;;
8594;SDS011;4335;48.860;9.198;2022-12-18T02:58:37;38.63;;;21.47;;
8594;SDS011;4335;48.860;9.198;2022-12-18T03:01:11;46.53;;;22.63;;
8594;SDS011;4335;48.860;9.198;2022-12-18T03:03:46;35.43;;;21.37;;
8594;SDS011;4335;48.860;9.198;2022-12-18T03:06:18;39.13;;;21.40;;
8594;SDS011;4335;48.860;9.198;2022-12-18T03:08:52;42.67;;;21.50;;
8594;SDS011;4335;48.860;9.198;2022-12-18T03:11:24;45.23;;;20.17;;
8594;SDS011;4335;48.860;9.198;2022-12-18T03:14:12;41.77;;;21.60;;
8594;SDS011;4335;48.860;9.198;2022-12-18T03:16:42;36.47;;;21.07;;
8594;SDS011;4335;48.860;9.198;2022-12-18T03:19:11;34.83;;;20.50;;
8594;SDS011;4335;48.860;9.198;2022-12-18T03:21:47;43.00;;;21.47;;
8594;SDS011;4335;48.860;9.198;2022-12-18T03:24:16;40.03;;;21.50;;
8594;SDS011;4335;48.860;9.198;2022-12-18T03:26:46;46.40;;;22.87;;
8594;SDS011;4335;48.860;9.198;2022-12-18T03:29:18;37.33;;;20.07;;
8594;SDS011;4335;48.860;9.198;2022-12-18T03:31:58;34.80;;;19.93;;
8594;SDS011;4335;48.860;9.198;2022-12-18T03:34:44;42.97;;;21.20;;
8594;SDS011;4335;48.860;9.198;2022-12-18T03:37:18;33.43;;;19.37;;
8594;SDS011;4335;48.860;9.198;2022-12-18T03:39:46;36.53;;;20.13;;
8594;SDS011;4335;48.860;9.198;2022-12-18T03:42:15;36.97;;;19.90;;
8594;SDS011;4335;48.860;9.198;2022-12-18T03:44:52;41.93;;;21.20;;
8594;SDS011;4335;48.860;9.198;2022-12-18T03:47:26;35.27;;;19.93;;
8594;SDS011;4335;48.860;9.198;2022-12-18T03:50:02;35.23;;;19.70;;
8594;SDS011;4335;48.860;9.198;2022-12-18T03:52:38;38.43;;;20.10;;
8594;SDS011;4335;48.860;9.198;2022-12-18T03:55:12;31.10;;;18.47;;
8594;SDS011;4335;48.860;9.198;2022-12-18T03:57:46;35.77;;;19.13;;
8594;SDS011;4335;48.860;9.198;2022-12-18T04:00:16;35.70;;;20.37;;
8594;SDS011;4335;48.860;9.198;2022-12-18T04:03:01;33.30;;;20.17;;
8594;SDS011;4335;48.860;9.198;2022-12-18T04:05:31;36.67;;;18.70;;
8594;SDS011;4335;48.860;9.198;2022-12-18T04:08:05;32.10;;;18.73;;
8594;SDS011;4335;48.860;9.198;2022-12-18T04:10:33;36.27;;;19.27;;
8594;SDS011;4335;48.860;9.198;2022-12-18T04:13:01;33.17;;;17.67;;
8594;SDS011;4335;48.860;9.198;2022-12-18T04:15:33;34.13;;;18.33;;
8594;SDS011;4335;48.860;9.198;2022-12-18T04:18:02;34.17;;;18.20;;
8594;SDS011;4335;48.860;9.198;2022-12-18T04:20:30;42.03;;;18.77;;
8594;SDS011;4335;48.860;9.198;2022-12-18T04:22:58;33.80;;;18.23;;
8594;SDS011;4335;48.860;9.198;2022-12-18T04:25:25;35.57;;;17.53;;
8594;SDS011;4335;48.860;9.198;2022-12-18T04:27:53;33.67;;;19.10;;
8594;SDS011;4335;48.860;9.198;2022-12-18T04:30:26;32.73;;;17.77;;
8594;SDS011;4335;48.860;9.198;2022-12-18T04:32:58;33.00;;;18.47;;
8594;SDS011;4335;48.860;9.198;2022-12-18T04:35:25;30.47;;;18.53;;
8594;SDS011;4335;48.860;9.198;2022-12-18T04:37:53;29.20;;;17.30;;
8594;SDS011;4335;48.860;9.198;2022-12-18T04:40:20;35.77;;;19.30;;
8594;SDS011;4335;48.860;9.198;2022-12-18T04:42:51;28.03;;;16.90;;
8594;SDS011;4335;48.860;9.198;2022-12-18T04:45:18;40.17;;;19.87;;
8594;SDS011;4335;48.860;9.198;2022-12-18T04:47:46;35.80;;;19.97;;
8594;SDS011;4335;48.860;9.198;2022-12-18T04:50:15;41.13;;;19.03;;
8594;SDS011;4335;48.860;9.198;2022-12-18T04:52:42;31.17;;;17.07;;
8594;SDS011;4335;48.860;9.198;2022-12-18T04:55:13;28.17;;;17.17;;
8594;SDS011;4335;48.860;9.198;2022-12-18T04:57:43;36.27;;;19.73;;
8594;SDS011;4335;48.860;9.198;2022-12-18T05:00:11;36.77;;;19.60;;
8594;SDS011;4335;48.860;9.198;2022-12-18T05:02:39;34.07;;;19.30;;
8594;SDS011;4335;48.860;9.198;2022-12-18T05:05:07;37.07;;;20.23;;
8594;SDS011;4335;48.860;9.198;2022-12-18T05:07:36;37.13;;;18.63;;
8594;SDS011;4335;48.860;9.198;2022-12-18T05:10:05;34.33;;;18.97;;
8594;SDS011;4335;48.860;9.198;2022-12-18T05:12:32;35.30;;;18.63;;
8594;SDS011;4335;48.860;9.198;2022-12-18T05:15:20;37.40;;;18.90;;
8594;SDS011;4335;48.860;9.198;2022-12-18T05:17:50;35.83;;;19.60;;
8594;SDS011;4335;48.860;9.198;2022-12-18T05:20:21;38.30;;;19.37;;
8594;SDS011;4335;48.860;9.198;2022-12-18T05:22:50;39.60;;;18.27;;
8594;SDS011;4335;48.860;9.198;2022-12-18T05:25:18;35.07;;;19.73;;
8594;SDS011;4335;48.860;9.198;2022-12-18T05:27:46;34.03;;;17.77;;
8594;SDS011;4335;48.860;9.198;2022-12-18T05:30:16;38.50;;;21.00;;
8594;SDS011;4335;48.860;9.198;2022-12-18T05:32:45;35.10;;;18.90;;
8594;SDS011;4335;48.860;9.198;2022-12-18T05:35:16;37.93;;;20.23;;
8594;SDS011;4335;48.860;9.198;2022-12-18T05:37:43;39.03;;;19.43;;
8594;SDS011;4335;48.860;9.198;2022-12-18T05:40:19;39.03;;;20.40;;
8594;SDS011;4335;48.860;9.198;2022-12-18T05:42:47;38.80;;;19.73;;
8594;SDS011;4335;48.860;9.198;2022-12-18T05:45:14;36.93;;;19.50;;
8594;SDS011;4335;48.860;9.198;2022-12-18T05:47:42;37.87;;;20.13;;
8594;SDS011;4335;48.860;9.198;2022-12-18T05:50:17;32.57;;;19.20;;
8594;SDS011;4335;48.860;9.198;2022-12-18T05:52:44;40.30;;;21.90;;
8594;SDS011;4335;48.860;9.198;2022-12-18T05:55:19;39.80;;;20.73;;
8594;SDS011;4335;48.860;9.198;2022-12-18T05:57:47;32.40;;;19.27;;
8594;SDS011;4335;48.860;9.198;2022-12-18T06:00:17;34.50;;;18.43;;
8594;SDS011;4335;48.860;9.198;2022-12-18T06:02:46;35.90;;;18.00;;
8594;SDS011;4335;48.860;9.198;2022-12-18T06:05:20;35.83;;;19.20;;
8594;SDS011;4335;48.860;9.198;2022-12-18T06:07:50;37.50;;;17.23;;
8594;SDS011;4335;48.860;9.198;2022-12-18T06:10:19;35.13;;;18.33;;
8594;SDS011;4335;48.860;9.198;2022-12-18T06:12:47;35.80;;;20.57;;
8594;SDS011;4335;48.860;9.198;2022-12-18T06:15:14;33.10;;;18.40;;
8594;SDS011;4335;48.860;9.198;2022-12-18T06:17:42;44.20;;;20.20;;
8594;SDS011;4335;48.860;9.198;2022-12-18T06:20:15;33.90;;;19.30;;
8594;SDS011;4335;48.860;9.198;2022-12-18T06:22:43;39.40;;;19.63;;
8594;SDS011;4335;48.860;9.198;2022-12-18T06:25:16;32.00;;;18.77;;
8594;SDS011;4335;48.860;9.198;2022-12-18T06:27:46;37.50;;;18.00;;
8594;SDS011;4335;48.860;9.198;2022-12-18T06:30:17;35.30;;;18.67;;
8594;SDS011;4335;48.860;9.198;2022-12-18T06:32:44;32.40;;;18.07;;
8594;SDS011;4335;48.860;9.198;2022-12-18T06:35:24;36.33;;;18.03;;
8594;SDS011;4335;48.860;9.198;2022-12-18T06:37:51;34.23;;;18.93;;
8594;SDS011;4335;48.860;9.198;2022-12-18T06:40:19;30.07;;;18.17;;
8594;SDS011;4335;48.860;9.198;2022-12-18T06:42:48;32.37;;;18.17;;
8594;SDS011;4335;48.860;9.198;2022-12-18T06:45:15;26.37;;;16.13;;
8594;SDS011;4335;48.860;9.198;2022-12-18T06:47:43;32.77;;;17.80;;
8594;SDS011;4335;48.860;9.198;2022-12-18T06:50:10;29.17;;;17.73;;
8594;SDS011;4335;48.860;9.198;2022-12-18T06:52:38;35.97;;;18.40;;
8594;SDS011;4335;48.860;9.198;2022-12-18T06:55:06;31.07;;;16.03;;
8594;SDS011;4335;48.860;9.198;2022-12-18T06:57:34;31.57;;;17.77;;
8594;SDS011;4335;48.860;9.198;2022-12-18T07:00:04;30.47;;;17.67;;
8594;SDS011;4335;48.860;9.198;2022-12-18T07:02:39;31.57;;;17.27;;
8594;SDS011;4335;48.860;9.198;2022-12-18T07:05:09;32.10;;;17.83;;
8594;SDS011;4335;48.860;9.198;2022-12-18T07:07:37;28.77;;;16.57;;
8594;SDS011;4335;48.860;9.198;2022-12-18T07:10:05;33.40;;;18.07;;
8594;SDS011;4335;48.860;9.198;2022-12-18T07:12:33;34.53;;;17.90;;
8594;SDS011;4335;48.860;9.198;2022-12-18T07:15:00;37.43;;;19.87;;
8594;SDS011;4335;48.860;9.198;2022-12-18T07:17:32;32.07;;;18.17;;
8594;SDS011;4335;48.860;9.198;2022-12-18T07:20:00;29.63;;;17.93;;
8594;SDS011;4335;48.860;9.198;2022-12-18T07:22:31;36.07;;;16.87;;
8594;SDS011;4335;48.860;9.198;2022-12-18T07:25:01;29.07;;;17.70;;
8594;SDS011;4335;48.860;9.198;2022-12-18T07:27:29;31.20;;;18.30;;
8594;SDS011;4335;48.860;9.198;2022-12-18T07:29:59;31.90;;;16.67;;
8594;SDS011;4335;48.860;9.198;2022-12-18T07:32:27;34.37;;;17.00;;
8594;SDS011;4335;48.860;9.198;2022-12-18T07:34:56;26.83;;;18.43;;
8594;SDS011;4335;48.860;9.198;2022-12-18T07:37:23;29.53;;;17.90;;
8594;SDS011;4335;48.860;9.198;2022-12-18T07:39:51;28.70;;;17.27;;
8594;SDS011;4335;48.860;9.198;2022-12-18T07:42:21;29.70;;;17.60;;
8594;SDS011;4335;48.860;9.198;2022-12-18T07:44:57;36.10;;;18.20;;
8594;SDS011;4335;48.860;9.198;2022-12-18T07:47:29;32.23;;;17.80;;
8594;SDS011;4335;48.860;9.198;2022-12-18T07:50:04;30.03;;;17.57;;
8594;SDS011;4335;48.860;9.198;2022-12-18T07:52:32;38.87;;;18.90;;
8594;SDS011;4335;48.860;9.198;2022-12-18T07:55:00;31.00;;;17.47;;
8594;SDS011;4335;48.860;9.198;2022-12-18T07:57:27;31.50;;;18.10;;
8594;SDS011;4335;48.860;9.198;2022-12-18T08:00:04;30.80;;;18.37;;
8594;SDS011;4335;48.860;9.198;2022-12-18T08:02:33;26.23;;;15.80;;
8594;SDS011;4335;48.860;9.198;2022-12-18T08:05:00;30.23;;;17.93;;
8594;SDS011;4335;48.860;9.198;2022-12-18T08:07:29;30.60;;;16.90;;
8594;SDS011;4335;48.860;9.198;2022-12-18T08:09:59;26.87;;;16.83;;
8594;SDS011;4335;48.860;9.198;2022-12-18T08:12:30;29.83;;;18.27;;
8594;SDS011;4335;48.860;9.198;2022-12-18T08:14:57;29.07;;;17.30;;
8594;SDS011;4335;48.860;9.198;2022-12-18T08:17:27;32.53;;;19.27;;
8594;SDS011;4335;48.860;9.198;2022-12-18T08:19:54;32.47;;;17.90;;
8594;SDS011;4335;48.860;9.198;2022-12-18T08:22:22;28.30;;;16.53;;
8594;SDS011;4335;48.860;9.198;2022-12-18T08:24:57;32.87;;;17.53;;
8594;SDS011;4335;48.860;9.198;2022-12-18T08:27:25;33.90;;;16.87;;
8594;SDS011;4335;48.860;9.198;2022-12-18T08:29:53;28.37;;;17.20;;
8594;SDS011;4335;48.860;9.198;2022-12-18T08:32:20;27.17;;;16.80;;
8594;SDS011;4335;48.860;9.198;2022-12-18T08:34:55;28.80;;;17.87;;
8594;SDS011;4335;48.860;9.198;2022-12-18T08:37:23;32.17;;;17.93;;
8594;SDS011;4335;48.860;9.198;2022-12-18T08:39:52;30.80;;;17.80;;
8594;SDS011;4335;48.860;9.198;2022-12-18T08:42:29;33.13;;;19.23;;
8594;SDS011;4335;48.860;9.198;2022-12-18T08:45:13;33.00;;;19.00;;
8594;SDS011;4335;48.860;9.198;2022-12-18T08:47:43;38.97;;;20.37;;
8594;SDS011;4335;48.860;9.198;2022-12-18T08:50:11;34.10;;;18.23;;
8594;SDS011;4335;48.860;9.198;2022-12-18T08:52:38;33.07;;;18.63;;
8594;SDS011;4335;48.860;9.198;2022-12-18T08:55:08;32.53;;;18.80;;
8594;SDS011;4335;48.860;9.198;2022-12-18T08:57:41;30.10;;;18.27;;
8594;SDS011;4335;48.860;9.198;2022-12-18T09:00:12;36.80;;;18.60;;
8594;SDS011;4335;48.860;9.198;2022-12-18T09:02:40;28.33;;;17.47;;
8594;SDS011;4335;48.860;9.198;2022-12-18T09:05:08;33.03;;;19.50;;
8594;SDS011;4335;48.860;9.198;2022-12-18T09:07:36;30.67;;;17.17;;
8594;SDS011;4335;48.860;9.198;2022-12-18T09:10:04;33.77;;;18.40;;
8594;SDS011;4335;48.860;9.198;2022-12-18T09:12:34;32.50;;;19.20;;
8594;SDS011;4335;48.860;9.198;2022-12-18T09:15:01;37.03;;;20.33;;
8594;SDS011;4335;48.860;9.198;2022-12-18T09:17:30;34.27;;;18.07;;
8594;SDS011;4335;48.860;9.198;2022-12-18T09:19:57;32.43;;;20.50;;
8594;SDS011;4335;48.860;9.198;2022-12-18T09:22:25;29.57;;;17.27;;
8594;SDS011;4335;48.860;9.198;2022-12-18T09:24:52;32.53;;;18.30;;
8594;SDS011;4335;48.860;9.198;2022-12-18T09:27:20;33.67;;;19.23;;
8594;SDS011;4335;48.860;9.198;2022-12-18T09:29:49;34.80;;;19.37;;
8594;SDS011;4335;48.860;9.198;2022-12-18T09:32:17;33.27;;;17.93;;
8594;SDS011;4335;48.860;9.198;2022-12-18T09:34:45;34.53;;;19.63;;
8594;SDS011;4335;48.860;9.198;2022-12-18T09:37:12;35.97;;;19.10;;
8594;SDS011;4335;48.860;9.198;2022-12-18T09:39:40;34.63;;;20.57;;
8594;SDS011;4335;48.860;9.198;2022-12-18T09:42:09;35.97;;;19.73;;
8594;SDS011;4335;48.860;9.198;2022-12-18T09:44:49;32.67;;;20.20;;
8594;SDS011;4335;48.860;9.198;2022-12-18T09:47:19;36.90;;;20.23;;
8594;SDS011;4335;48.860;9.198;2022-12-18T09:49:53;39.87;;;21.33;;
8594;SDS011;4335;48.860;9.198;2022-12-18T09:52:28;36.47;;;21.00;;
8594;SDS011;4335;48.860;9.198;2022-12-18T09:55:00;40.70;;;21.30;;
8594;SDS011;4335;48.860;9.198;2022-12-18T09:57:35;36.57;;;20.37;;
8594;SDS011;4335;48.860;9.198;2022-12-18T10:00:13;38.67;;;20.83;;
8594;SDS011;4335;48.860;9.198;2022-12-18T10:02:44;38.63;;;20.73;;
8594;SDS011;4335;48.860;9.198;2022-12-18T10:05:13;36.63;;;19.97;;
8594;SDS011;4335;48.860;9.198;2022-12-18T10:07:53;31.20;;;18.60;;
8594;SDS011;4335;48.860;9.198;2022-12-18T10:10:30;34.30;;;20.20;;
8594;SDS011;4335;48.860;9.198;2022-12-18T10:13:09;29.97;;;19.73;;
8594;SDS011;4335;48.860;9.198;2022-12-18T10:15:52;33.97;;;19.40;;
8594;SDS011;4335;48.860;9.198;2022-12-18T10:18:36;36.40;;;20.57;;
8594;SDS011;4335;48.860;9.198;2022-12-18T10:21:15;40.30;;;20.23;;
8594;SDS011;4335;48.860;9.198;2022-12-18T10:23:47;40.30;;;19.87;;
8594;SDS011;4335;48.860;9.198;2022-12-18T10:26:20;38.90;;;20.87;;
8594;SDS011;4335;48.860;9.198;2022-12-18T10:28:50;33.13;;;21.27;;
8594;SDS011;4335;48.860;9.198;2022-12-18T10:31:22;36.43;;;19.03;;
8594;SDS011;4335;48.860;9.198;2022-12-18T10:33:50;38.87;;;20.57;;
8594;SDS011;4335;48.860;9.198;2022-12-18T10:36:20;38.47;;;20.30;;
8594;SDS011;4335;48.860;9.198;2022-12-18T10:38:49;39.57;;;21.80;;
8594;SDS011;4335;48.860;9.198;2022-12-18T10:41:25;33.30;;;19.33;;
8594;SDS011;4335;48.860;9.198;2022-12-18T10:44:14;37.43;;;19.90;;
8594;SDS011;4335;48.860;9.198;2022-12-18T10:46:46;39.40;;;20.53;;
8594;SDS011;4335;48.860;9.198;2022-12-18T10:49:19;30.80;;;18.47;;
8594;SDS011;4335;48.860;9.198;2022-12-18T10:51:49;32.00;;;17.60;;
8594;SDS011;4335;48.860;9.198;2022-12-18T10:54:18;38.03;;;19.67;;
8594;SDS011;4335;48.860;9.198;2022-12-18T10:56:49;35.03;;;19.70;;
8594;SDS011;4335;48.860;9.198;2022-12-18T10:59:17;34.97;;;19.00;;
8594;SDS011;4335;48.860;9.198;2022-12-18T11:01:47;38.10;;;20.17;;
8594;SDS011;4335;48.860;9.198;2022-12-18T11:04:17;33.90;;;19.70;;
8594;SDS011;4335;48.860;9.198;2022-12-18T11:06:57;36.60;;;20.37;;
8594;SDS011;4335;48.860;9.198;2022-12-18T11:09:26;33.93;;;18.43;;
8594;SDS011;4335;48.860;9.198;2022-12-18T11:11:55;33.73;;;18.00;;
8594;SDS011;4335;48.860;9.198;2022-12-18T11:14:25;30.03;;;16.43;;
8594;SDS011;4335;48.860;9.198;2022-12-18T11:16:58;27.03;;;16.43;;
8594;SDS011;4335;48.860;9.198;2022-12-18T11:19:31;33.03;;;17.47;;
8594;SDS011;4335;48.860;9.198;2022-12-18T11:22:00;26.60;;;16.37;;
8594;SDS011;4335;48.860;9.198;2022-12-18T11:24:52;32.77;;;18.67;;
8594;SDS011;4335;48.860;9.198;2022-12-18T11:27:22;29.90;;;16.90;;
8594;SDS011;4335;48.860;9.198;2022-12-18T11:29:50;36.47;;;20.17;;
8594;SDS011;4335;48.860;9.198;2022-12-18T11:32:23;28.03;;;17.77;;
8594;SDS011;4335;48.860;9.198;2022-12-18T11:34:57;34.43;;;18.77;;
8594;SDS011;4335;48.860;9.198;2022-12-18T11:37:30;35.17;;;18.40;;
8594;SDS011;4335;48.860;9.198;2022-12-18T11:40:00;32.43;;;18.50;;
8594;SDS011;4335;48.860;9.198;2022-12-18T11:42:35;33.97;;;19.77;;
8594;SDS011;4335;48.860;9.198;2022-12-18T11:45:14;36.83;;;18.90;;
8594;SDS011;4335;48.860;9.198;2022-12-18T11:47:58;34.87;;;18.13;;
8594;SDS011;4335;48.860;9.198;2022-12-18T11:50:33;34.40;;;19.33;;
8594;SDS011;4335;48.860;9.198;2022-12-18T11:53:16;32.10;;;19.13;;
8594;SDS011;4335;48.860;9.198;2022-12-18T11:55:47;36.67;;;20.70;;
8594;SDS011;4335;48.860;9.198;2022-12-18T11:58:24;32.60;;;19.07;;
8594;SDS011;4335;48.860;9.198;2022-12-18T12:01:13;36.00;;;18.33;;
8594;SDS011;4335;48.860;9.198;2022-12-18T12:06:50;36.10;;;18.67;;
8594;SDS011;4335;48.860;9.198;2022-12-18T12:09:27;35.33;;;19.03;;
8594;SDS011;4335;48.860;9.198;2022-12-18T12:12:06;35.13;;;19.03;;
8594;SDS011;4335;48.860;9.198;2022-12-18T12:14:48;36.77;;;21.70;;
8594;SDS011;4335;48.860;9.198;2022-12-18T12:17:32;33.13;;;19.77;;
8594;SDS011;4335;48.860;9.198;2022-12-18T12:20:11;32.70;;;18.07;;
8594;SDS011;4335;48.860;9.198;2022-12-18T12:22:47;32.37;;;17.97;;
8594;SDS011;4335;48.860;9.198;2022-12-18T12:25:26;36.60;;;21.53;;
8594;SDS011;4335;48.860;9.198;2022-12-18T12:28:02;34.17;;;19.50;;
8594;SDS011;4335;48.860;9.198;2022-12-18T12:30:47;32.30;;;20.43;;
8594;SDS011;4335;48.860;9.198;2022-12-18T12:33:26;30.30;;;19.23;;
8594;SDS011;4335;48.860;9.198;2022-12-18T12:36:05;33.57;;;18.67;;
8594;SDS011;4335;48.860;9.198;2022-12-18T12:38:41;31.53;;;19.40;;
8594;SDS011;4335;48.860;9.198;2022-12-18T12:41:12;33.27;;;20.63;;
8594;SDS011;4335;48.860;9.198;2022-12-18T12:43:57;31.73;;;18.43;;
8594;SDS011;4335;48.860;9.198;2022-12-18T12:46:27;30.03;;;18.87;;
8594;SDS011;4335;48.860;9.198;2022-12-18T12:48:59;31.23;;;18.80;;
8594;SDS011;4335;48.860;9.198;2022-12-18T12:51:32;34.27;;;20.13;;
8594;SDS011;4335;48.860;9.198;2022-12-18T12:54:02;30.37;;;19.23;;
8594;SDS011;4335;48.860;9.198;2022-12-18T12:56:39;31.47;;;18.53;;
8594;SDS011;4335;48.860;9.198;2022-12-18T12:59:15;34.13;;;19.43;;
8594;SDS011;4335;48.860;9.198;2022-12-18T13:01:49;31.27;;;18.60;;
8594;SDS011;4335;48.860;9.198;2022-12-18T13:04:26;35.60;;;19.00;;
8594;SDS011;4335;48.860;9.198;2022-12-18T13:07:03;31.10;;;17.47;;
8594;SDS011;4335;48.860;9.198;2022-12-18T13:12:51;36.13;;;18.37;;
8594;SDS011;4335;48.860;9.198;2022-12-18T13:15:22;31.87;;;18.43;;
8594;SDS011;4335;48.860;9.198;2022-12-18T13:20:48;31.77;;;19.23;;
8594;SDS011;4335;48.860;9.198;2022-12-18T13:23:27;34.03;;;18.53;;
8594;SDS011;4335;48.860;9.198;2022-12-18T13:25:57;35.50;;;18.60;;
8594;SDS011;4335;48.860;9.198;2022-12-18T13:34:34;39.17;;;19.77;;
8594;SDS011;4335;48.860;9.198;2022-12-18T13:43:29;32.53;;;18.27;;
8594;SDS011;4335;48.860;9.198;2022-12-18T13:46:00;33.27;;;18.87;;
8594;SDS011;4335;48.860;9.198;2022-12-18T13:48:32;32.87;;;18.23;;
8594;SDS011;4335;48.860;9.198;2022-12-18T13:51:03;36.70;;;20.00;;
8594;SDS011;4335;48.860;9.198;2022-12-18T13:53:35;30.90;;;17.63;;
8594;SDS011;4335;48.860;9.198;2022-12-18T13:56:09;30.40;;;17.87;;
8594;SDS011;4335;48.860;9.198;2022-12-18T13:59:13;31.83;;;18.93;;
8594;SDS011;4335;48.860;9.198;2022-12-18T14:01:43;30.10;;;17.50;;
8594;SDS011;4335;48.860;9.198;2022-12-18T14:04:16;32.83;;;18.73;;
8594;SDS011;4335;48.860;9.198;2022-12-18T14:06:56;31.87;;;18.73;;
8594;SDS011;4335;48.860;9.198;2022-12-18T14:09:31;29.53;;;17.83;;
8594;SDS011;4335;48.860;9.198;2022-12-18T14:12:05;32.00;;;17.77;;
8594;SDS011;4335;48.860;9.198;2022-12-18T14:14:54;37.10;;;18.03;;
8594;SDS011;4335;48.860;9.198;2022-12-18T14:17:22;33.10;;;18.07;;
8594;SDS011;4335;48.860;9.198;2022-12-18T14:19:52;29.77;;;17.47;;
8594;SDS011;4335;48.860;9.198;2022-12-18T14:22:21;30.53;;;17.77;;
8594;SDS011;4335;48.860;9.198;2022-12-18T14:25:05;30.23;;;16.97;;
8594;SDS011;4335;48.860;9.198;2022-12-18T14:27:41;31.80;;;17.63;;
8594;SDS011;4335;48.860;9.198;2022-12-18T14:30:30;30.03;;;18.37;;
8594;SDS011;4335;48.860;9.198;2022-12-18T14:32:59;29.00;;;17.57;;
8594;SDS011;4335;48.860;9.198;2022-12-18T14:35:33;31.30;;;17.53;;
8594;SDS011;4335;48.860;9.198;2022-12-18T14:40:58;32.87;;;19.57;;
8594;SDS011;4335;48.860;9.198;2022-12-18T14:43:27;37.87;;;20.33;;
8594;SDS011;4335;48.860;9.198;2022-12-18T14:45:57;36.50;;;19.90;;
8594;SDS011;4335;48.860;9.198;2022-12-18T14:48:33;37.30;;;21.13;;
8594;SDS011;4335;48.860;9.198;2022-12-18T14:51:06;35.63;;;20.63;;
8594;SDS011;4335;48.860;9.198;2022-12-18T14:53:42;34.40;;;20.43;;
8594;SDS011;4335;48.860;9.198;2022-12-18T14:56:14;34.47;;;20.07;;
8594;SDS011;4335;48.860;9.198;2022-12-18T14:58:53;34.23;;;20.87;;
8594;SDS011;4335;48.860;9.198;2022-12-18T15:01:28;32.87;;;20.33;;
8594;SDS011;4335;48.860;9.198;2022-12-18T15:03:58;34.40;;;20.57;;
8594;SDS011;4335;48.860;9.198;2022-12-18T15:06:31;38.07;;;20.77;;
8594;SDS011;4335;48.860;9.198;2022-12-18T15:09:00;35.37;;;20.50;;
8594;SDS011;4335;48.860;9.198;2022-12-18T15:11:43;38.17;;;20.87;;
8594;SDS011;4335;48.860;9.198;2022-12-18T15:14:31;31.83;;;20.40;;
8594;SDS011;4335;48.860;9.198;2022-12-18T15:17:03;37.83;;;21.03;;
8594;SDS011;4335;48.860;9.198;2022-12-18T15:19:43;38.80;;;20.50;;
8594;SDS011;4335;48.860;9.198;2022-12-18T15:22:17;36.30;;;20.10;;
8594;SDS011;4335;48.860;9.198;2022-12-18T15:24:47;38.80;;;22.17;;
8594;SDS011;4335;48.860;9.198;2022-12-18T15:27:21;37.20;;;22.57;;
8594;SDS011;4335;48.860;9.198;2022-12-18T15:32:49;34.30;;;20.03;;
8594;SDS011;4335;48.860;9.198;2022-12-18T15:35:18;41.57;;;21.90;;
8594;SDS011;4335;48.860;9.198;2022-12-18T15:37:47;35.50;;;21.17;;
8594;SDS011;4335;48.860;9.198;2022-12-18T15:40:19;35.77;;;22.80;;
8594;SDS011;4335;48.860;9.198;2022-12-18T15:42:47;38.87;;;22.77;;
8594;SDS011;4335;48.860;9.198;2022-12-18T15:45:34;37.43;;;22.50;;
8594;SDS011;4335;48.860;9.198;2022-12-18T15:48:15;47.57;;;26.47;;